sensor_id;sensor_type;location;lat;lon;timestamp;pressure;altitude;pressure_sealevel;temperature;humidity
54172;BME280;40076;52.354;4.970;2023-03-23T00:01:51;100088.06;;;12.39;100.00
54172;BME280;40076;52.354;4.970;2023-03-23T00:04:17;100088.06;;;12.39;100.00
54172;BME280;40076;52.354;4.970;2023-03-23T00:06:42;100100.47;;;12.40;100.00
54172;BME280;40076;52.354;4.970;2023-03-23T00:09:10;100095.50;;;12.42;100.00
54172;BME280;40076;52.354;4.970;2023-03-23T00:11:36;100093.59;;;12.43;100.00
54172;BME280;40076;52.354;4.970;2023-03-23T00:14:01;100088.97;;;12.43;100.00
54172;BME280;40076;52.354;4.970;2023-03-23T00:16:30;100088.16;;;12.43;100.00
54172;BME280;40076;52.354;4.970;2023-03-23T00:19:03;100089.72;;;12.44;100.00
54172;BME280;40076;52.354;4.970;2023-03-23T00:21:32;100089.72;;;12.44;100.00
54172;BME280;40076;52.354;4.970;2023-03-23T00:24:19;100102.56;;;12.47;100.00
54172;BME280;40076;52.354;4.970;2023-03-23T00:26:45;100094.44;;;12.47;100.00
54172;BME280;40076;52.354;4.970;2023-03-23T00:29:21;100094.38;;;12.43;100.00
54172;BME280;40076;52.354;4.970;2023-03-23T00:31:47;100088.97;;;12.43;100.00
54172;BME280;40076;52.354;4.970;2023-03-23T00:34:16;100075.41;;;12.43;100.00
54172;BME280;40076;52.354;4.970;2023-03-23T00:36:46;100079.66;;;12.44;100.00
54172;BME280;40076;52.354;4.970;2023-03-23T00:39:13;100071.19;;;12.46;100.00
54172;BME280;40076;52.354;4.970;2023-03-23T00:41:41;100068.13;;;12.47;100.00
54172;BME280;40076;52.354;4.970;2023-03-23T00:44:06;100065.09;;;12.49;100.00
54172;BME280;40076;52.354;4.970;2023-03-23T00:46:33;100056.50;;;12.47;100.00
54172;BME280;40076;52.354;4.970;2023-03-23T00:48:59;100057.41;;;12.51;100.00
54172;BME280;40076;52.354;4.970;2023-03-23T00:51:24;100063.59;;;12.51;100.00
54172;BME280;40076;52.354;4.970;2023-03-23T00:53:50;100060.53;;;12.53;100.00
54172;BME280;40076;52.354;4.970;2023-03-23T00:56:15;100053.97;;;12.54;100.00
54172;BME280;40076;52.354;4.970;2023-03-23T00:58:41;100056.69;;;12.54;100.00
54172;BME280;40076;52.354;4.970;2023-03-23T01:01:07;100053.63;;;12.55;100.00
54172;BME280;40076;52.354;4.970;2023-03-23T01:03:33;100046.63;;;12.54;100.00
54172;BME280;40076;52.354;4.970;2023-03-23T01:06:07;100047.75;;;12.53;100.00
54172;BME280;40076;52.354;4.970;2023-03-23T01:08:33;100051.72;;;12.56;100.00
54172;BME280;40076;52.354;4.970;2023-03-23T01:11:04;100058.59;;;12.53;100.00
54172;BME280;40076;52.354;4.970;2023-03-23T01:13:33;100052.84;;;12.55;100.00
54172;BME280;40076;52.354;4.970;2023-03-23T01:15:58;100048.91;;;12.52;100.00
54172;BME280;40076;52.354;4.970;2023-03-23T01:18:24;100058.25;;;12.55;100.00
54172;BME280;40076;52.354;4.970;2023-03-23T01:20:49;100044.28;;;12.53;100.00
54172;BME280;40076;52.354;4.970;2023-03-23T01:23:14;100032.75;;;12.56;100.00
54172;BME280;40076;52.354;4.970;2023-03-23T01:25:40;100033.19;;;12.58;100.00
54172;BME280;40076;52.354;4.970;2023-03-23T01:28:05;100014.22;;;12.58;100.00
54172;BME280;40076;52.354;4.970;2023-03-23T01:30:31;100015.00;;;12.58;100.00
54172;BME280;40076;52.354;4.970;2023-03-23T01:32:56;100008.78;;;12.58;100.00
54172;BME280;40076;52.354;4.970;2023-03-23T01:35:22;100016.94;;;12.58;100.00
54172;BME280;40076;52.354;4.970;2023-03-23T01:37:47;100015.75;;;12.59;100.00
54172;BME280;40076;52.354;4.970;2023-03-23T01:40:13;100013.84;;;12.59;100.00
54172;BME280;40076;52.354;4.970;2023-03-23T01:42:39;100010.78;;;12.61;100.00
54172;BME280;40076;52.354;4.970;2023-03-23T01:47:46;100011.56;;;12.61;100.00
54172;BME280;40076;52.354;4.970;2023-03-23T01:50:13;100008.50;;;12.63;100.00
54172;BME280;40076;52.354;4.970;2023-03-23T01:52:38;100010.88;;;12.64;100.00
54172;BME280;40076;52.354;4.970;2023-03-23T01:55:05;100012.81;;;12.64;100.00
54172;BME280;40076;52.354;4.970;2023-03-23T01:57:31;100006.59;;;12.63;100.00
54172;BME280;40076;52.354;4.970;2023-03-23T01:59:59;100014.72;;;12.63;100.00
54172;BME280;40076;52.354;4.970;2023-03-23T02:02:27;99994.97;;;12.63;100.00
54172;BME280;40076;52.354;4.970;2023-03-23T02:04:55;99990.34;;;12.63;100.00
54172;BME280;40076;52.354;4.970;2023-03-23T02:07:22;99987.28;;;12.65;100.00
54172;BME280;40076;52.354;4.970;2023-03-23T02:09:50;99991.91;;;12.64;100.00
54172;BME280;40076;52.354;4.970;2023-03-23T02:12:15;99980.28;;;12.64;100.00
54172;BME280;40076;52.354;4.970;2023-03-23T02:14:40;99983.78;;;12.64;100.00
54172;BME280;40076;52.354;4.970;2023-03-23T02:20:08;99981.41;;;12.63;100.00
54172;BME280;40076;52.354;4.970;2023-03-23T02:30:48;99969.34;;;12.60;100.00
54172;BME280;40076;52.354;4.970;2023-03-23T02:36:12;99977.13;;;12.62;100.00
54172;BME280;40076;52.354;4.970;2023-03-23T02:38:53;99974.75;;;12.60;100.00
54172;BME280;40076;52.354;4.970;2023-03-23T02:41:21;99973.97;;;12.60;100.00
54172;BME280;40076;52.354;4.970;2023-03-23T02:43:49;99981.31;;;12.59;100.00
54172;BME280;40076;52.354;4.970;2023-03-23T02:46:15;99975.56;;;12.61;100.00
54172;BME280;40076;52.354;4.970;2023-03-23T02:48:43;99978.25;;;12.61;100.00
54172;BME280;40076;52.354;4.970;2023-03-23T02:51:10;99976.69;;;12.60;100.00
54172;BME280;40076;52.354;4.970;2023-03-23T02:53:39;99965.50;;;12.61;100.00
54172;BME280;40076;52.354;4.970;2023-03-23T02:56:07;99970.13;;;12.61;100.00
54172;BME280;40076;52.354;4.970;2023-03-23T02:58:34;99977.91;;;12.62;100.00
54172;BME280;40076;52.354;4.970;2023-03-23T03:01:16;99972.84;;;12.61;100.00
54172;BME280;40076;52.354;4.970;2023-03-23T03:04:04;99977.13;;;12.62;100.00
54172;BME280;40076;52.354;4.970;2023-03-23T03:06:37;99952.72;;;12.62;100.00
54172;BME280;40076;52.354;4.970;2023-03-23T03:09:18;99957.38;;;12.61;100.00
54172;BME280;40076;52.354;4.970;2023-03-23T03:11:48;99968.22;;;12.61;100.00
54172;BME280;40076;52.354;4.970;2023-03-23T03:14:22;99966.97;;;12.59;100.00
54172;BME280;40076;52.354;4.970;2023-03-23T03:16:57;99958.09;;;12.58;100.00
54172;BME280;40076;52.354;4.970;2023-03-23T03:19:41;99958.09;;;12.58;100.00
54172;BME280;40076;52.354;4.970;2023-03-23T03:22:08;99963.84;;;12.57;100.00
54172;BME280;40076;52.354;4.970;2023-03-23T03:24:35;99977.75;;;12.55;100.00
54172;BME280;40076;52.354;4.970;2023-03-23T03:27:11;99966.91;;;12.55;100.00
54172;BME280;40076;52.354;4.970;2023-03-23T03:29:40;99958.44;;;12.57;100.00
54172;BME280;40076;52.354;4.970;2023-03-23T03:32:08;99951.44;;;12.56;100.00
54172;BME280;40076;52.354;4.970;2023-03-23T03:34:35;99961.50;;;12.55;100.00
54172;BME280;40076;52.354;4.970;2023-03-23T03:37:00;99990.97;;;12.57;100.00
54172;BME280;40076;52.354;4.970;2023-03-23T03:39:26;100002.16;;;12.55;100.00
54172;BME280;40076;52.354;4.970;2023-03-23T03:41:53;100009.47;;;12.55;100.00
54172;BME280;40076;52.354;4.970;2023-03-23T03:44:19;100014.47;;;12.53;100.00
54172;BME280;40076;52.354;4.970;2023-03-23T03:46:44;100007.84;;;12.50;100.00
54172;BME280;40076;52.354;4.970;2023-03-23T03:49:10;100022.53;;;12.49;100.00
54172;BME280;40076;52.354;4.970;2023-03-23T03:51:40;100013.50;;;12.45;100.00
54172;BME280;40076;52.354;4.970;2023-03-23T03:54:06;99994.47;;;12.42;100.00
54172;BME280;40076;52.354;4.970;2023-03-23T03:56:31;100003.72;;;12.41;100.00
54172;BME280;40076;52.354;4.970;2023-03-23T03:59:00;100001.38;;;12.39;100.00
54172;BME280;40076;52.354;4.970;2023-03-23T04:01:25;100009.06;;;12.37;100.00
54172;BME280;40076;52.354;4.970;2023-03-23T04:03:50;99991.22;;;12.36;100.00
54172;BME280;40076;52.354;4.970;2023-03-23T04:06:17;99990.47;;;12.35;100.00
54172;BME280;40076;52.354;4.970;2023-03-23T04:08:45;100005.13;;;12.34;100.00
54172;BME280;40076;52.354;4.970;2023-03-23T04:11:12;100003.13;;;12.31;100.00
54172;BME280;40076;52.354;4.970;2023-03-23T04:13:39;99996.91;;;12.31;100.00
54172;BME280;40076;52.354;4.970;2023-03-23T04:16:05;99986.88;;;12.31;100.00
54172;BME280;40076;52.354;4.970;2023-03-23T04:18:32;99994.91;;;12.28;100.00
54172;BME280;40076;52.354;4.970;2023-03-23T04:20:58;100004.97;;;12.27;100.00
54172;BME280;40076;52.354;4.970;2023-03-23T04:23:26;100013.44;;;12.26;100.00
54172;BME280;40076;52.354;4.970;2023-03-23T04:25:52;100010.28;;;12.24;100.00
54172;BME280;40076;52.354;4.970;2023-03-23T04:28:22;100017.53;;;12.20;100.00
54172;BME280;40076;52.354;4.970;2023-03-23T04:30:49;100026.69;;;12.15;100.00
54172;BME280;40076;52.354;4.970;2023-03-23T04:33:18;100024.72;;;12.12;100.00
54172;BME280;40076;52.354;4.970;2023-03-23T04:35:46;100029.22;;;12.08;100.00
54172;BME280;40076;52.354;4.970;2023-03-23T04:38:15;100034.66;;;12.08;100.00
54172;BME280;40076;52.354;4.970;2023-03-23T04:40:42;100034.97;;;12.07;100.00
54172;BME280;40076;52.354;4.970;2023-03-23T04:43:07;100042.69;;;12.05;100.00
54172;BME280;40076;52.354;4.970;2023-03-23T04:45:34;100043.81;;;12.04;100.00
54172;BME280;40076;52.354;4.970;2023-03-23T04:48:03;100051.16;;;12.03;100.00
54172;BME280;40076;52.354;4.970;2023-03-23T04:50:32;100069.31;;;12.03;100.00
54172;BME280;40076;52.354;4.970;2023-03-23T04:52:59;100059.97;;;12.00;100.00
54172;BME280;40076;52.354;4.970;2023-03-23T04:55:33;100055.25;;;11.97;100.00
54172;BME280;40076;52.354;4.970;2023-03-23T04:58:07;100068.78;;;11.97;100.00
54172;BME280;40076;52.354;4.970;2023-03-23T05:00:33;100057.50;;;11.95;100.00
54172;BME280;40076;52.354;4.970;2023-03-23T05:02:59;100058.97;;;11.92;100.00
54172;BME280;40076;52.354;4.970;2023-03-23T05:05:27;100054.81;;;11.95;100.00
54172;BME280;40076;52.354;4.970;2023-03-23T05:07:54;100060.22;;;11.95;100.00
54172;BME280;40076;52.354;4.970;2023-03-23T05:10:20;100041.72;;;11.97;100.00
54172;BME280;40076;52.354;4.970;2023-03-23T05:12:45;100050.97;;;11.96;100.00
54172;BME280;40076;52.354;4.970;2023-03-23T05:15:12;100055.25;;;11.97;100.00
54172;BME280;40076;52.354;4.970;2023-03-23T05:17:38;100065.28;;;11.96;100.00
54172;BME280;40076;52.354;4.970;2023-03-23T05:20:04;100063.72;;;11.95;100.00
54172;BME280;40076;52.354;4.970;2023-03-23T05:22:33;100071.50;;;11.97;100.00
54172;BME280;40076;52.354;4.970;2023-03-23T05:24:59;100068.34;;;11.95;100.00
54172;BME280;40076;52.354;4.970;2023-03-23T05:27:27;100068.00;;;11.96;100.00
54172;BME280;40076;52.354;4.970;2023-03-23T05:29:53;100063.78;;;11.99;100.00
54172;BME280;40076;52.354;4.970;2023-03-23T05:32:18;100066.50;;;11.99;100.00
54172;BME280;40076;52.354;4.970;2023-03-23T05:34:44;100059.50;;;11.98;100.00
54172;BME280;40076;52.354;4.970;2023-03-23T05:37:09;100071.13;;;11.98;100.00
54172;BME280;40076;52.354;4.970;2023-03-23T05:39:40;100071.56;;;12.01;100.00
54172;BME280;40076;52.354;4.970;2023-03-23T05:42:05;100080.03;;;11.99;100.00
54172;BME280;40076;52.354;4.970;2023-03-23T05:44:31;100078.47;;;11.98;100.00
54172;BME280;40076;52.354;4.970;2023-03-23T05:46:56;100089.66;;;11.96;100.00
54172;BME280;40076;52.354;4.970;2023-03-23T05:49:22;100078.84;;;11.96;100.00
54172;BME280;40076;52.354;4.970;2023-03-23T05:51:47;100086.59;;;11.98;100.00
54172;BME280;40076;52.354;4.970;2023-03-23T05:54:15;100084.25;;;11.96;100.00
54172;BME280;40076;52.354;4.970;2023-03-23T05:56:40;100082.34;;;11.97;100.00
54172;BME280;40076;52.354;4.970;2023-03-23T05:59:06;100075.75;;;11.98;100.00
54172;BME280;40076;52.354;4.970;2023-03-23T06:01:32;100085.03;;;11.97;100.00
54172;BME280;40076;52.354;4.970;2023-03-23T06:03:57;100097.41;;;11.98;100.00
54172;BME280;40076;52.354;4.970;2023-03-23T06:06:28;100098.22;;;11.98;100.00
54172;BME280;40076;52.354;4.970;2023-03-23T06:08:55;100098.56;;;11.97;100.00
54172;BME280;40076;52.354;4.970;2023-03-23T06:11:20;100100.50;;;11.96;100.00
54172;BME280;40076;52.354;4.970;2023-03-23T06:13:46;100101.28;;;11.97;100.00
54172;BME280;40076;52.354;4.970;2023-03-23T06:16:12;100103.19;;;11.96;100.00
54172;BME280;40076;52.354;4.970;2023-03-23T06:18:38;100105.53;;;11.98;100.00
54172;BME280;40076;52.354;4.970;2023-03-23T06:21:06;100114.03;;;11.96;100.00
54172;BME280;40076;52.354;4.970;2023-03-23T06:23:33;100113.25;;;11.96;100.00
54172;BME280;40076;52.354;4.970;2023-03-23T06:26:01;100109.41;;;11.97;100.00
54172;BME280;40076;52.354;4.970;2023-03-23T06:28:27;100115.59;;;11.97;100.00
54172;BME280;40076;52.354;4.970;2023-03-23T06:30:53;100129.91;;;11.98;100.00
54172;BME280;40076;52.354;4.970;2023-03-23T06:33:19;100128.78;;;11.99;100.00
54172;BME280;40076;52.354;4.970;2023-03-23T06:35:44;100137.69;;;11.99;100.00
54172;BME280;40076;52.354;4.970;2023-03-23T06:38:10;100132.63;;;11.98;100.00
54172;BME280;40076;52.354;4.970;2023-03-23T06:40:35;100138.47;;;12.00;100.00
54172;BME280;40076;52.354;4.970;2023-03-23T06:43:03;100126.84;;;11.99;100.00
54172;BME280;40076;52.354;4.970;2023-03-23T06:45:30;100140.41;;;11.99;100.00
54172;BME280;40076;52.354;4.970;2023-03-23T06:47:55;100137.69;;;11.99;100.00
54172;BME280;40076;52.354;4.970;2023-03-23T06:50:21;100131.47;;;11.99;100.00
54172;BME280;40076;52.354;4.970;2023-03-23T06:52:48;100134.66;;;12.01;100.00
54172;BME280;40076;52.354;4.970;2023-03-23T06:55:14;100138.13;;;12.02;100.00
54172;BME280;40076;52.354;4.970;2023-03-23T06:57:40;100143.56;;;12.02;100.00
54172;BME280;40076;52.354;4.970;2023-03-23T07:00:06;100142.44;;;12.03;100.00
54172;BME280;40076;52.354;4.970;2023-03-23T07:02:33;100152.91;;;12.04;100.00
54172;BME280;40076;52.354;4.970;2023-03-23T07:04:59;100156.41;;;12.05;100.00
54172;BME280;40076;52.354;4.970;2023-03-23T07:07:25;100150.22;;;12.04;100.00
54172;BME280;40076;52.354;4.970;2023-03-23T07:09:51;100146.72;;;12.04;100.00
54172;BME280;40076;52.354;4.970;2023-03-23T07:12:16;100134.75;;;12.05;100.00
54172;BME280;40076;52.354;4.970;2023-03-23T07:14:42;100130.47;;;12.04;100.00
54172;BME280;40076;52.354;4.970;2023-03-23T07:17:07;100150.22;;;12.04;100.00
54172;BME280;40076;52.354;4.970;2023-03-23T07:19:32;100136.66;;;12.04;100.00
54172;BME280;40076;52.354;4.970;2023-03-23T07:21:58;100138.59;;;12.04;100.00
54172;BME280;40076;52.354;4.970;2023-03-23T07:24:23;100148.28;;;12.05;100.00
54172;BME280;40076;52.354;4.970;2023-03-23T07:26:48;100160.69;;;12.06;100.00
54172;BME280;40076;52.354;4.970;2023-03-23T07:29:14;100157.53;;;12.04;100.00
54172;BME280;40076;52.354;4.970;2023-03-23T07:31:39;100161.38;;;12.03;100.00
54172;BME280;40076;52.354;4.970;2023-03-23T07:34:04;100161.38;;;12.03;100.00
54172;BME280;40076;52.354;4.970;2023-03-23T07:36:30;100164.53;;;12.05;100.00
54172;BME280;40076;52.354;4.970;2023-03-23T07:38:56;100169.97;;;12.05;100.00
54172;BME280;40076;52.354;4.970;2023-03-23T07:41:21;100167.59;;;12.03;100.00
54172;BME280;40076;52.354;4.970;2023-03-23T07:43:47;100180.34;;;12.03;100.00
54172;BME280;40076;52.354;4.970;2023-03-23T07:46:13;100186.88;;;12.02;100.00
54172;BME280;40076;52.354;4.970;2023-03-23T07:48:38;100194.56;;;11.99;100.00
54172;BME280;40076;52.354;4.970;2023-03-23T07:51:05;100185.31;;;12.01;100.00
54172;BME280;40076;52.354;4.970;2023-03-23T07:53:30;100183.38;;;12.01;100.00
54172;BME280;40076;52.354;4.970;2023-03-23T07:55:57;100194.22;;;12.01;100.00
54172;BME280;40076;52.354;4.970;2023-03-23T07:58:22;100176.84;;;12.02;100.00
54172;BME280;40076;52.354;4.970;2023-03-23T08:00:48;100183.38;;;12.01;100.00
54172;BME280;40076;52.354;4.970;2023-03-23T08:03:14;100175.25;;;12.01;100.00
54172;BME280;40076;52.354;4.970;2023-03-23T08:05:40;100176.38;;;12.00;100.00
54172;BME280;40076;52.354;4.970;2023-03-23T08:08:08;100179.09;;;12.00;100.00
54172;BME280;40076;52.354;4.970;2023-03-23T08:10:34;100173.69;;;12.00;100.00
54172;BME280;40076;52.354;4.970;2023-03-23T08:13:01;100182.25;;;12.02;100.00
54172;BME280;40076;52.354;4.970;2023-03-23T08:15:26;100189.25;;;12.03;100.00
54172;BME280;40076;52.354;4.970;2023-03-23T08:17:52;100181.91;;;12.04;100.00
54172;BME280;40076;52.354;4.970;2023-03-23T08:20:18;100185.03;;;12.06;100.00
54172;BME280;40076;52.354;4.970;2023-03-23T08:22:52;100188.91;;;12.05;100.00
54172;BME280;40076;52.354;4.970;2023-03-23T08:25:17;100197.47;;;12.07;100.00
54172;BME280;40076;52.354;4.970;2023-03-23T08:27:43;100195.53;;;12.07;100.00
54172;BME280;40076;52.354;4.970;2023-03-23T08:30:11;100202.53;;;12.08;100.00
54172;BME280;40076;52.354;4.970;2023-03-23T08:32:38;100200.63;;;12.09;100.00
54172;BME280;40076;52.354;4.970;2023-03-23T08:35:04;100199.50;;;12.10;100.00
54172;BME280;40076;52.354;4.970;2023-03-23T08:37:29;100199.16;;;12.11;100.00
54172;BME280;40076;52.354;4.970;2023-03-23T08:39:55;100198.91;;;12.16;100.00
54172;BME280;40076;52.354;4.970;2023-03-23T08:42:23;100202.84;;;12.19;100.00
54172;BME280;40076;52.354;4.970;2023-03-23T08:44:49;100201.34;;;12.21;100.00
54172;BME280;40076;52.354;4.970;2023-03-23T08:47:15;100213.09;;;12.25;100.00
54172;BME280;40076;52.354;4.970;2023-03-23T08:49:41;100208.53;;;12.29;100.00
54172;BME280;40076;52.354;4.970;2023-03-23T08:52:07;100215.53;;;12.30;100.00
54172;BME280;40076;52.354;4.970;2023-03-23T08:54:33;100214.06;;;12.33;100.00
54172;BME280;40076;52.354;4.970;2023-03-23T08:57:02;100214.88;;;12.33;100.00
54172;BME280;40076;52.354;4.970;2023-03-23T08:59:28;100216.53;;;12.38;100.00
54172;BME280;40076;52.354;4.970;2023-03-23T09:01:53;100219.34;;;12.42;100.00
54172;BME280;40076;52.354;4.970;2023-03-23T09:04:19;100215.94;;;12.45;100.00
54172;BME280;40076;52.354;4.970;2023-03-23T09:06:44;100221.47;;;12.48;100.00
54172;BME280;40076;52.354;4.970;2023-03-23T09:09:11;100231.16;;;12.49;100.00
54172;BME280;40076;52.354;4.970;2023-03-23T09:11:37;100224.63;;;12.50;100.00
54172;BME280;40076;52.354;4.970;2023-03-23T09:14:04;100228.19;;;12.54;100.00
54172;BME280;40076;52.354;4.970;2023-03-23T09:16:30;100222.88;;;12.58;100.00
54172;BME280;40076;52.354;4.970;2023-03-23T09:18:56;100224.09;;;12.60;100.00
54172;BME280;40076;52.354;4.970;2023-03-23T09:21:23;100218.34;;;12.62;100.00
54172;BME280;40076;52.354;4.970;2023-03-23T09:23:49;100220.38;;;12.65;100.00
54172;BME280;40076;52.354;4.970;2023-03-23T09:26:14;100215.03;;;12.68;100.00
54172;BME280;40076;52.354;4.970;2023-03-23T09:28:40;100217.41;;;12.70;100.00
54172;BME280;40076;52.354;4.970;2023-03-23T09:31:05;100214.69;;;12.70;100.00
54172;BME280;40076;52.354;4.970;2023-03-23T09:33:31;100212.41;;;12.72;100.00
54172;BME280;40076;52.354;4.970;2023-03-23T09:36:00;100218.25;;;12.74;100.00
54172;BME280;40076;52.354;4.970;2023-03-23T09:38:27;100226.06;;;12.75;100.00
54172;BME280;40076;52.354;4.970;2023-03-23T09:41:01;100218.25;;;12.74;100.00
54172;BME280;40076;52.354;4.970;2023-03-23T09:44:09;100225.25;;;12.75;100.00
54172;BME280;40076;52.354;4.970;2023-03-23T09:47:10;100224.13;;;12.76;100.00
54172;BME280;40076;52.354;4.970;2023-03-23T09:49:53;100222.22;;;12.76;100.00
54172;BME280;40076;52.354;4.970;2023-03-23T09:52:20;100236.28;;;12.82;100.00
54172;BME280;40076;52.354;4.970;2023-03-23T09:54:48;100229.84;;;12.87;100.00
54172;BME280;40076;52.354;4.970;2023-03-23T09:57:30;100239.28;;;12.93;100.00
54172;BME280;40076;52.354;4.970;2023-03-23T10:05:33;100244.72;;;13.08;100.00
54172;BME280;40076;52.354;4.970;2023-03-23T10:08:01;100238.97;;;13.10;100.00
54172;BME280;40076;52.354;4.970;2023-03-23T10:10:38;100248.00;;;13.14;100.00
54172;BME280;40076;52.354;4.970;2023-03-23T10:15:55;100255.16;;;13.22;100.00
54172;BME280;40076;52.354;4.970;2023-03-23T10:18:29;100250.19;;;13.24;100.00
54172;BME280;40076;52.354;4.970;2023-03-23T10:20:59;100252.63;;;13.29;100.00
54172;BME280;40076;52.354;4.970;2023-03-23T10:26:25;100248.94;;;13.37;100.00
54172;BME280;40076;52.354;4.970;2023-03-23T10:29:32;100249.91;;;13.45;100.00
54172;BME280;40076;52.354;4.970;2023-03-23T10:32:20;100262.06;;;13.51;100.00
54172;BME280;40076;52.354;4.970;2023-03-23T10:34:53;100255.94;;;13.54;100.00
54172;BME280;40076;52.354;4.970;2023-03-23T10:37:34;100272.31;;;13.58;100.00
54172;BME280;40076;52.354;4.970;2023-03-23T10:40:03;100267.75;;;13.62;100.00
54172;BME280;40076;52.354;4.970;2023-03-23T10:42:36;100278.72;;;13.65;100.00
54172;BME280;40076;52.354;4.970;2023-03-23T10:45:30;100269.84;;;13.68;100.00
54172;BME280;40076;52.354;4.970;2023-03-23T10:48:17;100270.28;;;13.70;100.00
54172;BME280;40076;52.354;4.970;2023-03-23T10:50:48;100261.41;;;13.73;100.00
54172;BME280;40076;52.354;4.970;2023-03-23T10:53:19;100267.72;;;13.77;100.00
54172;BME280;40076;52.354;4.970;2023-03-23T10:55:46;100286.81;;;13.81;100.00
54172;BME280;40076;52.354;4.970;2023-03-23T10:58:23;100286.91;;;13.84;100.00
54172;BME280;40076;52.354;4.970;2023-03-23T11:00:49;100281.47;;;13.84;100.00
54172;BME280;40076;52.354;4.970;2023-03-23T11:05:48;100282.31;;;13.88;100.00
54172;BME280;40076;52.354;4.970;2023-03-23T11:08:23;100286.63;;;13.89;100.00
54172;BME280;40076;52.354;4.970;2023-03-23T11:11:08;100285.81;;;13.89;100.00
54172;BME280;40076;52.354;4.970;2023-03-23T11:13:39;100288.53;;;13.89;100.00
54172;BME280;40076;52.354;4.970;2023-03-23T11:16:05;100279.19;;;13.86;100.00
54172;BME280;40076;52.354;4.970;2023-03-23T11:18:41;100284.19;;;13.84;100.00
54172;BME280;40076;52.354;4.970;2023-03-23T11:21:12;100263.59;;;13.83;100.00
54172;BME280;40076;52.354;4.970;2023-03-23T11:23:42;100277.63;;;13.85;100.00
54172;BME280;40076;52.354;4.970;2023-03-23T11:28:57;100281.63;;;13.91;100.00
54172;BME280;40076;52.354;4.970;2023-03-23T11:31:34;100282.75;;;13.90;100.00
54172;BME280;40076;52.354;4.970;2023-03-23T11:34:03;100294.41;;;13.91;100.00
54172;BME280;40076;52.354;4.970;2023-03-23T11:36:32;100278.56;;;13.93;100.00
54172;BME280;40076;52.354;4.970;2023-03-23T11:38:58;100297.28;;;13.98;100.00
54172;BME280;40076;52.354;4.970;2023-03-23T11:41:24;100284.94;;;14.01;100.00
54172;BME280;40076;52.354;4.970;2023-03-23T11:43:53;100293.16;;;14.04;100.00
54172;BME280;40076;52.354;4.970;2023-03-23T11:46:29;100286.22;;;14.07;100.00
54172;BME280;40076;52.354;4.970;2023-03-23T11:49:01;100290.97;;;14.10;100.00
54172;BME280;40076;52.354;4.970;2023-03-23T11:51:48;100287.97;;;14.15;100.00
54172;BME280;40076;52.354;4.970;2023-03-23T11:54:36;100273.66;;;14.18;100.00
54172;BME280;40076;52.354;4.970;2023-03-23T11:57:08;100275.66;;;14.21;100.00
54172;BME280;40076;52.354;4.970;2023-03-23T11:59:35;100276.94;;;14.27;100.00
54172;BME280;40076;52.354;4.970;2023-03-23T12:02:16;100278.63;;;14.32;100.00
54172;BME280;40076;52.354;4.970;2023-03-23T12:13:02;100283.28;;;14.50;100.00
54172;BME280;40076;52.354;4.970;2023-03-23T12:18:10;100295.38;;;14.53;100.00
54172;BME280;40076;52.354;4.970;2023-03-23T12:38:51;100283.41;;;14.57;100.00
54172;BME280;40076;52.354;4.970;2023-03-23T12:44:10;100276.50;;;14.60;100.00
54172;BME280;40076;52.354;4.970;2023-03-23T12:49:35;100294.09;;;14.66;100.00
54172;BME280;40076;52.354;4.970;2023-03-23T12:54:50;100275.03;;;14.66;100.00
54172;BME280;40076;52.354;4.970;2023-03-23T12:57:31;100277.72;;;14.62;99.27
54172;BME280;40076;52.354;4.970;2023-03-23T13:00:14;100286.56;;;14.59;96.68
54172;BME280;40076;52.354;4.970;2023-03-23T13:03:09;100267.19;;;14.61;98.65
54172;BME280;40076;52.354;4.970;2023-03-23T13:05:47;100260.53;;;14.58;97.02
54172;BME280;40076;52.354;4.970;2023-03-23T13:08:23;100278.84;;;14.61;97.72
54172;BME280;40076;52.354;4.970;2023-03-23T13:10:53;100277.34;;;14.64;97.29
54172;BME280;40076;52.354;4.970;2023-03-23T13:13:24;100285.13;;;14.65;97.56
54172;BME280;40076;52.354;4.970;2023-03-23T13:16:16;100282.53;;;14.73;98.72
54172;BME280;40076;52.354;4.970;2023-03-23T13:18:59;100279.19;;;14.79;99.30
54172;BME280;40076;52.354;4.970;2023-03-23T13:21:51;100288.28;;;14.87;99.71
54172;BME280;40076;52.354;4.970;2023-03-23T13:24:21;100280.16;;;14.90;99.41
54172;BME280;40076;52.354;4.970;2023-03-23T13:26:49;100292.28;;;14.93;97.03
54172;BME280;40076;52.354;4.970;2023-03-23T13:29:18;100295.00;;;14.93;98.19
54172;BME280;40076;52.354;4.970;2023-03-23T13:31:46;100297.72;;;14.93;99.03
54172;BME280;40076;52.354;4.970;2023-03-23T13:34:19;100301.56;;;14.92;99.24
54172;BME280;40076;52.354;4.970;2023-03-23T13:36:54;100301.94;;;14.90;99.07
54172;BME280;40076;52.354;4.970;2023-03-23T13:39:24;100302.25;;;14.85;99.09
54172;BME280;40076;52.354;4.970;2023-03-23T13:49:55;100307.59;;;14.82;96.70
54172;BME280;40076;52.354;4.970;2023-03-23T13:52:23;100323.13;;;14.81;96.31
54172;BME280;40076;52.354;4.970;2023-03-23T13:54:50;100314.19;;;14.81;95.14
54172;BME280;40076;52.354;4.970;2023-03-23T13:57:37;100303.72;;;14.83;94.79
54172;BME280;40076;52.354;4.970;2023-03-23T14:03:01;100313.38;;;14.80;92.14
54172;BME280;40076;52.354;4.970;2023-03-23T14:05:41;100307.59;;;14.82;92.76
54172;BME280;40076;52.354;4.970;2023-03-23T14:13:32;100272.66;;;14.84;92.64
54172;BME280;40076;52.354;4.970;2023-03-23T14:16:01;100266.53;;;14.87;92.84
54172;BME280;40076;52.354;4.970;2023-03-23T14:18:35;100281.66;;;14.88;93.00
54172;BME280;40076;52.354;4.970;2023-03-23T14:21:01;100283.69;;;14.91;93.81